Time;durP1;ratioP1;P1;durP2;ratioP2;P2;SDS_P1;SDS_P2;PMS_P1;PMS_P2;Temp;Humidity;BMP_temperature;BMP_pressure;BME280_temperature;BME280_humidity;BME280_pressure;Samples;Min_cycle;Max_cycle;Signal;HPM_P1;HPM_P2
2023/05/25 00:00:52;;;;;;;0.10;0.10;;;;;;;;;;5080448;28;20028;-84
2023/05/25 00:03:20;;;;;;;0.05;0.05;;;;;;;;;;5079434;28;20044;-84
2023/05/25 00:05:47;;;;;;;0.00;0.00;;;;;;;;;;5087879;28;20028;-84
2023/05/25 00:08:16;;;;;;;0.00;0.00;;;;;;;;;;5084071;28;20149;-85
2023/05/25 00:10:41;;;;;;;0.32;0.20;;;;;;;;;;5081487;28;20031;-85
2023/05/25 00:13:08;;;;;;;0.03;0.03;;;;;;;;;;5077841;28;20688;-86
2023/05/25 00:15:39;;;;;;;0.00;0.00;;;;;;;;;;5072587;28;20020;-85
2023/05/25 00:18:07;;;;;;;0.00;0.00;;;;;;;;;;5076028;28;20020;-85
2023/05/25 00:20:48;;;;;;;0.00;0.00;;;;;;;;;;5075390;28;20029;-85
2023/05/25 00:23:13;;;;;;;0.20;0.20;;;;;;;;;;5084186;28;20111;-84
2023/05/25 00:25:42;;;;;;;0.00;0.00;;;;;;;;;;5097367;28;20044;-85
2023/05/25 00:28:09;;;;;;;0.00;0.00;;;;;;;;;;5099719;28;20063;-84
2023/05/25 00:30:43;;;;;;;0.00;0.00;;;;;;;;;;5071805;28;20024;-86
2023/05/25 00:33:17;;;;;;;0.32;0.32;;;;;;;;;;5089986;28;20028;-86
2023/05/25 00:35:43;;;;;;;0.00;0.00;;;;;;;;;;5079683;28;20025;-85
2023/05/25 00:38:18;;;;;;;0.00;0.00;;;;;;;;;;5060423;28;20034;-86
2023/05/25 00:40:44;;;;;;;0.00;0.00;;;;;;;;;;5076468;28;20039;-85
2023/05/25 00:43:10;;;;;;;0.10;0.10;;;;;;;;;;5063198;28;20040;-85
2023/05/25 00:45:38;;;;;;;0.00;0.00;;;;;;;;;;5102053;28;20052;-85
2023/05/25 00:48:08;;;;;;;0.00;0.00;;;;;;;;;;5071772;28;20037;-86
2023/05/25 00:50:39;;;;;;;0.00;0.00;;;;;;;;;;5063159;28;20025;-87
2023/05/25 00:53:05;;;;;;;0.00;0.00;;;;;;;;;;5062617;28;20033;-87
2023/05/25 00:55:46;;;;;;;0.00;0.00;;;;;;;;;;5066637;28;20035;-86
2023/05/25 00:58:15;;;;;;;0.00;0.00;;;;;;;;;;5073045;28;20034;-86
2023/05/25 01:00:42;;;;;;;0.00;0.00;;;;;;;;;;5105095;28;20020;-86
2023/05/25 01:03:16;;;;;;;0.00;0.00;;;;;;;;;;5074348;28;20033;-87
2023/05/25 01:05:46;;;;;;;0.00;0.00;;;;;;;;;;5076750;28;20040;-87
2023/05/25 01:08:12;;;;;;;;;;;;;;;;;;5054531;28;20032;-85
2023/05/25 01:10:39;;;;;;;0.00;0.00;;;;;;;;;;5095730;28;19957;-85
2023/05/25 01:13:08;;;;;;;0.00;0.00;;;;;;;;;;5091626;28;20051;-87
2023/05/25 01:15:34;;;;;;;0.00;0.00;;;;;;;;;;5077597;28;20080;-87
2023/05/25 01:18:00;;;;;;;0.00;0.00;;;;;;;;;;5071385;28;20422;-86
2023/05/25 01:20:29;;;;;;;0.00;0.00;;;;;;;;;;5075282;28;20024;-86
2023/05/25 01:23:13;;;;;;;0.00;0.00;;;;;;;;;;5074670;28;20063;-84
2023/05/25 01:25:43;;;;;;;0.00;0.00;;;;;;;;;;5064451;28;20025;-84
2023/05/25 01:28:16;;;;;;;0.00;0.00;;;;;;;;;;5066315;28;20111;-85
2023/05/25 01:30:48;;;;;;;0.00;0.00;;;;;;;;;;5077358;28;20062;-84
2023/05/25 01:33:17;;;;;;;0.00;0.00;;;;;;;;;;5072726;28;20025;-84
2023/05/25 01:35:44;;;;;;;0.05;0.05;;;;;;;;;;5072525;28;20483;-87
2023/05/25 01:38:10;;;;;;;0.00;0.00;;;;;;;;;;5075251;28;20090;-86
2023/05/25 01:40:35;;;;;;;0.00;0.00;;;;;;;;;;5100491;28;20457;-87
2023/05/25 01:43:04;;;;;;;0.00;0.00;;;;;;;;;;5098876;28;20028;-88
2023/05/25 01:45:31;;;;;;;0.00;0.00;;;;;;;;;;5065789;28;20028;-85
2023/05/25 01:47:57;;;;;;;0.00;0.00;;;;;;;;;;5092676;28;20400;-86
2023/05/25 01:50:25;;;;;;;0.08;0.08;;;;;;;;;;5076562;28;20025;-88
2023/05/25 01:53:43;;;;;;;0.05;0.05;;;;;;;;;;5071929;28;20056;-87
2023/05/25 01:56:13;;;;;;;0.00;0.00;;;;;;;;;;5026034;28;20055;-84
2023/05/25 01:58:42;;;;;;;0.00;0.00;;;;;;;;;;5053912;28;20029;-85
2023/05/25 02:01:08;;;;;;;0.00;0.00;;;;;;;;;;5059823;28;20035;-85
2023/05/25 02:03:39;;;;;;;0.00;0.00;;;;;;;;;;5069797;28;20021;-84
2023/05/25 02:06:06;;;;;;;0.00;0.00;;;;;;;;;;5062586;28;20064;-85
2023/05/25 02:08:32;;;;;;;0.05;0.05;;;;;;;;;;5073792;28;20032;-85
2023/05/25 02:10:58;;;;;;;0.00;0.00;;;;;;;;;;5067874;28;20089;-84
2023/05/25 02:13:26;;;;;;;0.00;0.00;;;;;;;;;;5110414;28;20479;-84
2023/05/25 02:15:52;;;;;;;0.00;0.00;;;;;;;;;;5093297;28;20035;-84
2023/05/25 02:18:23;;;;;;;0.00;0.00;;;;;;;;;;5105021;28;20029;-84
2023/05/25 02:20:49;;;;;;;0.00;0.00;;;;;;;;;;5112259;28;20055;-83
2023/05/25 02:23:17;;;;;;;0.00;0.00;;;;;;;;;;5099194;28;21678;-84
2023/05/25 02:25:43;;;;;;;0.00;0.00;;;;;;;;;;5129046;27;20051;-86
2023/05/25 02:28:08;;;;;;;0.00;0.00;;;;;;;;;;5094439;28;20648;-86
2023/05/25 02:30:37;;;;;;;0.00;0.00;;;;;;;;;;5097538;28;20030;-86
2023/05/25 02:33:05;;;;;;;0.00;0.00;;;;;;;;;;5093974;28;20032;-86
2023/05/25 02:35:34;;;;;;;0.10;0.10;;;;;;;;;;5098375;28;20045;-86
2023/05/25 02:38:02;;;;;;;0.00;0.00;;;;;;;;;;5093840;28;20044;-87
2023/05/25 02:40:30;;;;;;;0.00;0.00;;;;;;;;;;5124029;27;20028;-86
2023/05/25 02:43:22;;;;;;;0.00;0.00;;;;;;;;;;5096127;28;20484;-87
2023/05/25 02:45:50;;;;;;;0.00;0.00;;;;;;;;;;5086113;28;20107;-87
2023/05/25 02:48:24;;;;;;;0.00;0.00;;;;;;;;;;5084419;28;20028;-86
2023/05/25 02:50:50;;;;;;;0.00;0.00;;;;;;;;;;5083452;28;20399;-87
2023/05/25 02:53:20;;;;;;;0.28;0.28;;;;;;;;;;5095038;28;20035;-86
2023/05/25 02:55:49;;;;;;;0.00;0.00;;;;;;;;;;5102770;28;20032;-87
2023/05/25 02:58:17;;;;;;;0.00;0.00;;;;;;;;;;5127397;27;20055;-86
2023/05/25 03:00:46;;;;;;;0.00;0.00;;;;;;;;;;5105417;28;20110;-86
2023/05/25 03:03:14;;;;;;;0.00;0.00;;;;;;;;;;5087299;28;20102;-87
2023/05/25 03:05:47;;;;;;;0.00;0.00;;;;;;;;;;5123952;27;20019;-84
2023/05/25 03:08:13;;;;;;;0.00;0.00;;;;;;;;;;5101355;28;20023;-84
2023/05/25 03:10:41;;;;;;;0.00;0.00;;;;;;;;;;5089125;28;20391;-85
2023/05/25 03:13:09;;;;;;;0.00;0.00;;;;;;;;;;5088661;28;20031;-85
2023/05/25 03:15:39;;;;;;;0.00;0.00;;;;;;;;;;5112408;28;20115;-86
2023/05/25 03:18:16;;;;;;;0.00;0.00;;;;;;;;;;5091305;28;20107;-84
2023/05/25 03:20:53;;;;;;;0.00;0.00;;;;;;;;;;5103362;28;20107;-86
2023/05/25 03:23:22;;;;;;;0.00;0.00;;;;;;;;;;5094929;28;20438;-86
2023/05/25 03:25:50;;;;;;;0.00;0.00;;;;;;;;;;5118775;27;20024;-84
2023/05/25 03:28:18;;;;;;;0.00;0.00;;;;;;;;;;5111388;28;20054;-84
2023/05/25 03:30:53;;;;;;;0.00;0.00;;;;;;;;;;5089187;28;20032;-85
2023/05/25 03:33:43;;;;;;;0.05;0.05;;;;;;;;;;5090858;28;20052;-84
2023/05/25 03:36:08;;;;;;;0.00;0.00;;;;;;;;;;5099752;28;20043;-85
2023/05/25 03:38:35;;;;;;;0.85;0.43;;;;;;;;;;5105406;28;20472;-85
2023/05/25 03:41:01;;;;;;;0.00;0.00;;;;;;;;;;5089913;28;20357;-85
2023/05/25 03:43:30;;;;;;;0.00;0.00;;;;;;;;;;5102979;28;20027;-84
2023/05/25 03:45:58;;;;;;;0.20;0.20;;;;;;;;;;5084658;28;20032;-85
2023/05/25 03:48:26;;;;;;;0.10;0.10;;;;;;;;;;5102785;28;20050;-84
2023/05/25 03:50:52;;;;;;;0.00;0.00;;;;;;;;;;5095061;28;20019;-87
2023/05/25 03:53:21;;;;;;;0.00;0.00;;;;;;;;;;5091246;28;20042;-87
2023/05/25 03:55:50;;;;;;;0.00;0.00;;;;;;;;;;5094972;28;20016;-85
2023/05/25 03:58:17;;;;;;;0.00;0.00;;;;;;;;;;5113023;27;20052;-85
2023/05/25 04:00:42;;;;;;;0.00;0.00;;;;;;;;;;5105287;28;20498;-86
2023/05/25 04:03:11;;;;;;;0.73;0.32;;;;;;;;;;5084409;28;20031;-85
2023/05/25 04:05:46;;;;;;;0.00;0.00;;;;;;;;;;5116703;27;20024;-85
2023/05/25 04:08:27;;;;;;;0.03;0.03;;;;;;;;;;5085848;28;20422;-86
2023/05/25 04:10:56;;;;;;;0.10;0.10;;;;;;;;;;5079690;28;20476;-86
2023/05/25 04:13:27;;;;;;;0.10;0.10;;;;;;;;;;5064588;28;20098;-84
2023/05/25 04:15:57;;;;;;;0.00;0.00;;;;;;;;;;5067597;28;20035;-85
2023/05/25 04:18:28;;;;;;;0.00;0.00;;;;;;;;;;5059340;28;20027;-84
2023/05/25 04:20:56;;;;;;;0.00;0.00;;;;;;;;;;5059769;28;20115;-85
2023/05/25 04:23:21;;;;;;;0.00;0.00;;;;;;;;;;5067127;28;20028;-85
2023/05/25 04:25:49;;;;;;;0.00;0.00;;;;;;;;;;5094489;28;20380;-85
2023/05/25 04:28:15;;;;;;;0.10;0.10;;;;;;;;;;5071061;28;20028;-85
2023/05/25 04:30:41;;;;;;;0.00;0.00;;;;;;;;;;5070475;28;20389;-87
2023/05/25 04:33:06;;;;;;;0.08;0.08;;;;;;;;;;5071732;28;20021;-86
2023/05/25 04:35:31;;;;;;;0.00;0.00;;;;;;;;;;5071214;28;20048;-86
2023/05/25 04:37:59;;;;;;;0.20;0.20;;;;;;;;;;5071379;28;20107;-85
2023/05/25 04:40:26;;;;;;;0.00;0.00;;;;;;;;;;5071027;28;20491;-86
2023/05/25 04:42:52;;;;;;;0.00;0.00;;;;;;;;;;5101506;28;20469;-86
2023/05/25 04:45:20;;;;;;;0.00;0.00;;;;;;;;;;5065432;28;20099;-84
2023/05/25 04:47:46;;;;;;;0.00;0.00;;;;;;;;;;5070728;28;20028;-86
2023/05/25 04:50:12;;;;;;;0.00;0.00;;;;;;;;;;5071126;28;20149;-86
2023/05/25 04:52:38;;;;;;;0.00;0.00;;;;;;;;;;5065815;28;20407;-86
2023/05/25 04:55:03;;;;;;;0.00;0.00;;;;;;;;;;5089530;28;20039;-87
2023/05/25 04:57:30;;;;;;;0.00;0.00;;;;;;;;;;5071148;28;20510;-87
2023/05/25 04:59:56;;;;;;;0.10;0.10;;;;;;;;;;5071205;28;20035;-86
2023/05/25 05:02:21;;;;;;;0.00;0.00;;;;;;;;;;5069477;28;20028;-86
2023/05/25 05:04:52;;;;;;;0.10;0.10;;;;;;;;;;5067917;28;20020;-87
2023/05/25 05:07:19;;;;;;;0.00;0.00;;;;;;;;;;5069380;28;20383;-86
2023/05/25 05:09:45;;;;;;;0.00;0.00;;;;;;;;;;5071263;28;20028;-88
2023/05/25 05:12:11;;;;;;;0.00;0.00;;;;;;;;;;5067686;28;20040;-87
2023/05/25 05:14:36;;;;;;;0.00;0.00;;;;;;;;;;5068150;28;20036;-86
2023/05/25 05:17:02;;;;;;;0.10;0.10;;;;;;;;;;5065124;28;20029;-86
2023/05/25 05:19:27;;;;;;;0.00;0.00;;;;;;;;;;5069491;28;20031;-86
2023/05/25 05:21:53;;;;;;;0.00;0.00;;;;;;;;;;5071273;28;20020;-85
2023/05/25 05:24:18;;;;;;;0.00;0.00;;;;;;;;;;5070698;28;20025;-87
2023/05/25 05:26:43;;;;;;;0.00;0.00;;;;;;;;;;5059800;28;20480;-86
2023/05/25 05:29:09;;;;;;;0.22;0.22;;;;;;;;;;5069917;28;20024;-84
2023/05/25 05:31:35;;;;;;;0.00;0.00;;;;;;;;;;5068425;28;20165;-86
2023/05/25 05:34:01;;;;;;;0.32;0.20;;;;;;;;;;5057390;28;20040;-88
2023/05/25 05:36:29;;;;;;;0.00;0.00;;;;;;;;;;5067640;28;20020;-87
2023/05/25 05:38:54;;;;;;;0.10;0.10;;;;;;;;;;5069680;28;20033;-85
2023/05/25 05:41:20;;;;;;;0.00;0.00;;;;;;;;;;5070186;28;20595;-86
2023/05/25 05:43:46;;;;;;;0.00;0.00;;;;;;;;;;5070470;28;20032;-87
2023/05/25 05:46:13;;;;;;;0.00;0.00;;;;;;;;;;5072405;28;20031;-87
2023/05/25 05:48:39;;;;;;;0.30;0.22;;;;;;;;;;5074161;28;20476;-83
2023/05/25 05:51:06;;;;;;;1.95;0.20;;;;;;;;;;5072561;28;20056;-86
2023/05/25 05:53:32;;;;;;;0.00;0.00;;;;;;;;;;5071428;28;20411;-88
2023/05/25 05:55:58;;;;;;;0.40;0.30;;;;;;;;;;5071721;28;20111;-86
2023/05/25 05:58:28;;;;;;;0.00;0.00;;;;;;;;;;5073319;28;20705;-86
2023/05/25 06:00:55;;;;;;;0.00;0.00;;;;;;;;;;5072697;28;20074;-85
2023/05/25 06:03:21;;;;;;;0.20;0.20;;;;;;;;;;5072516;28;20116;-86
2023/05/25 06:05:46;;;;;;;0.00;0.00;;;;;;;;;;5096159;28;20039;-86
2023/05/25 06:08:12;;;;;;;0.45;0.20;;;;;;;;;;5064277;28;20241;-85
2023/05/25 06:10:38;;;;;;;0.00;0.00;;;;;;;;;;5071281;28;20020;-86
2023/05/25 06:13:03;;;;;;;0.13;0.10;;;;;;;;;;5104775;28;20051;-85
2023/05/25 06:15:28;;;;;;;0.05;0.05;;;;;;;;;;5096987;28;20495;-89
2023/05/25 06:17:54;;;;;;;0.00;0.00;;;;;;;;;;5085890;28;20098;-84
2023/05/25 06:20:19;;;;;;;0.00;0.00;;;;;;;;;;5101461;28;20077;-86
2023/05/25 06:22:45;;;;;;;0.00;0.00;;;;;;;;;;5101069;28;20333;-85
2023/05/25 06:25:10;;;;;;;0.00;0.00;;;;;;;;;;5100475;28;20058;-88
2023/05/25 06:27:36;;;;;;;0.00;0.00;;;;;;;;;;5100271;28;20027;-86
2023/05/25 06:30:02;;;;;;;0.00;0.00;;;;;;;;;;5099489;28;20111;-86
2023/05/25 06:32:27;;;;;;;0.08;0.03;;;;;;;;;;5094776;28;20044;-86
2023/05/25 06:34:53;;;;;;;0.00;0.00;;;;;;;;;;5091218;28;20384;-83
2023/05/25 06:37:18;;;;;;;0.05;0.05;;;;;;;;;;5103388;28;20020;-86
2023/05/25 06:39:44;;;;;;;0.00;0.00;;;;;;;;;;5099504;28;20027;-84
2023/05/25 06:42:10;;;;;;;0.10;0.10;;;;;;;;;;5104335;28;20098;-85
2023/05/25 06:44:36;;;;;;;0.10;0.10;;;;;;;;;;5102910;28;20120;-85
2023/05/25 06:47:02;;;;;;;0.00;0.00;;;;;;;;;;5101244;28;20122;-85
2023/05/25 06:49:28;;;;;;;0.10;0.10;;;;;;;;;;5101452;28;20028;-86
2023/05/25 06:51:53;;;;;;;0.00;0.00;;;;;;;;;;5102000;28;20509;-85
2023/05/25 06:54:19;;;;;;;0.15;0.05;;;;;;;;;;5099635;28;20132;-85
2023/05/25 06:56:45;;;;;;;0.00;0.00;;;;;;;;;;5090873;28;20114;-85
2023/05/25 06:59:10;;;;;;;0.00;0.00;;;;;;;;;;5097438;28;20019;-84
2023/05/25 07:01:36;;;;;;;0.10;0.10;;;;;;;;;;5094829;28;20408;-84
2023/05/25 07:04:02;;;;;;;0.10;0.03;;;;;;;;;;5103814;28;20467;-81
2023/05/25 07:06:28;;;;;;;0.10;0.10;;;;;;;;;;5093360;28;20503;-83
2023/05/25 07:08:54;;;;;;;0.30;0.30;;;;;;;;;;5097005;28;20063;-84
2023/05/25 07:11:20;;;;;;;0.45;0.13;;;;;;;;;;5100972;28;20054;-83
2023/05/25 07:13:46;;;;;;;0.10;0.10;;;;;;;;;;5102135;28;20031;-81
2023/05/25 07:16:12;;;;;;;0.00;0.00;;;;;;;;;;5102636;28;20027;-84
2023/05/25 07:18:39;;;;;;;0.00;0.00;;;;;;;;;;5102957;28;20100;-87
2023/05/25 07:21:05;;;;;;;0.20;0.20;;;;;;;;;;5100500;28;20399;-86
2023/05/25 07:23:31;;;;;;;0.08;0.08;;;;;;;;;;5098084;28;20016;-87
2023/05/25 07:25:56;;;;;;;0.00;0.00;;;;;;;;;;5103003;28;20140;-88
2023/05/25 07:28:22;;;;;;;0.00;0.00;;;;;;;;;;5102560;28;20110;-84
2023/05/25 07:30:47;;;;;;;0.00;0.00;;;;;;;;;;5089093;28;20024;-87
2023/05/25 07:33:12;;;;;;;0.10;0.10;;;;;;;;;;5098215;28;20030;-86
2023/05/25 07:35:38;;;;;;;0.00;0.00;;;;;;;;;;5091021;28;20020;-87
2023/05/25 07:38:03;;;;;;;0.00;0.00;;;;;;;;;;5098164;28;20047;-87
2023/05/25 07:40:29;;;;;;;0.05;0.05;;;;;;;;;;5102343;28;20047;-85
2023/05/25 07:42:55;;;;;;;0.00;0.00;;;;;;;;;;5100048;28;20460;-85
2023/05/25 07:45:20;;;;;;;0.00;0.00;;;;;;;;;;5096986;28;20172;-87
2023/05/25 07:47:46;;;;;;;0.00;0.00;;;;;;;;;;5104203;28;20428;-85
2023/05/25 07:50:13;;;;;;;0.00;0.00;;;;;;;;;;5099049;28;20026;-85
2023/05/25 07:52:38;;;;;;;0.00;0.00;;;;;;;;;;5095257;28;20032;-87
2023/05/25 07:55:08;;;;;;;0.17;0.17;;;;;;;;;;5105761;28;20399;-90
2023/05/25 07:57:33;;;;;;;0.00;0.00;;;;;;;;;;5097229;28;20039;-83
2023/05/25 07:59:59;;;;;;;0.00;0.00;;;;;;;;;;5096713;28;20114;-86
2023/05/25 08:02:24;;;;;;;0.00;0.00;;;;;;;;;;5097646;28;20020;-86
2023/05/25 08:04:50;;;;;;;0.00;0.00;;;;;;;;;;5093357;28;20012;-86
2023/05/25 08:07:18;;;;;;;0.10;0.10;;;;;;;;;;5090330;28;20019;-85
2023/05/25 08:09:43;;;;;;;0.13;0.10;;;;;;;;;;5099307;28;20035;-85
2023/05/25 08:12:09;;;;;;;0.00;0.00;;;;;;;;;;5082894;28;20044;-85
2023/05/25 08:14:50;;;;;;;0.20;0.10;;;;;;;;;;5071693;28;20445;-87
2023/05/25 08:17:16;;;;;;;0.00;0.00;;;;;;;;;;5070361;28;20036;-87
2023/05/25 08:19:41;;;;;;;0.00;0.00;;;;;;;;;;5072675;28;20028;-85
2023/05/25 08:22:07;;;;;;;0.00;0.00;;;;;;;;;;5060887;28;20024;-89
2023/05/25 08:24:32;;;;;;;0.10;0.10;;;;;;;;;;5099258;28;20029;-86
2023/05/25 08:26:58;;;;;;;0.00;0.00;;;;;;;;;;5100232;28;20646;-90
2023/05/25 08:29:23;;;;;;;1.45;0.75;;;;;;;;;;5088620;28;20122;-88
2023/05/25 08:31:50;;;;;;;0.00;0.00;;;;;;;;;;5073189;28;20491;-92
2023/05/25 08:34:18;;;;;;;0.00;0.00;;;;;;;;;;5064913;28;20074;-88
2023/05/25 08:36:44;;;;;;;0.10;0.10;;;;;;;;;;5057250;28;20495;-89
2023/05/25 08:39:10;;;;;;;0.13;0.13;;;;;;;;;;5061746;28;20054;-91
2023/05/25 08:41:49;;;;;;;0.00;0.00;;;;;;;;;;5075212;28;20488;-88
2023/05/25 08:44:20;;;;;;;0.38;0.20;;;;;;;;;;5059430;28;20056;-85
2023/05/25 08:46:49;;;;;;;0.00;0.00;;;;;;;;;;5059357;28;20372;-88
2023/05/25 08:49:18;;;;;;;0.00;0.00;;;;;;;;;;5076117;28;20118;-87
2023/05/25 08:51:56;;;;;;;0.00;0.00;;;;;;;;;;5071079;28;20056;-86
2023/05/25 08:54:30;;;;;;;0.00;0.00;;;;;;;;;;5073876;28;20053;-88
2023/05/25 08:57:22;;;;;;;0.00;0.00;;;;;;;;;;5065671;28;20531;-85
2023/05/25 09:00:02;;;;;;;0.00;0.00;;;;;;;;;;5068121;28;20047;-87
2023/05/25 09:02:47;;;;;;;0.00;0.00;;;;;;;;;;5074283;28;20096;-87
2023/05/25 09:05:13;;;;;;;0.00;0.00;;;;;;;;;;5073550;28;20025;-86
2023/05/25 09:07:41;;;;;;;0.00;0.00;;;;;;;;;;5056816;28;20090;-86
2023/05/25 09:10:13;;;;;;;0.00;0.00;;;;;;;;;;5074312;28;20119;-88
2023/05/25 09:12:41;;;;;;;0.50;0.50;;;;;;;;;;5062989;28;20052;-85
2023/05/25 09:15:09;;;;;;;0.22;0.10;;;;;;;;;;5058368;28;20586;-87
2023/05/25 09:17:35;;;;;;;0.00;0.00;;;;;;;;;;5058531;28;20030;-86
2023/05/25 09:20:03;;;;;;;0.00;0.00;;;;;;;;;;5068374;28;20422;-86
2023/05/25 09:22:36;;;;;;;0.00;0.00;;;;;;;;;;5096386;28;20115;-88
2023/05/25 09:25:20;;;;;;;0.22;0.22;;;;;;;;;;5058497;28;20033;-87
2023/05/25 09:27:46;;;;;;;0.00;0.00;;;;;;;;;;5075216;28;20391;-85
2023/05/25 09:30:11;;;;;;;0.10;0.10;;;;;;;;;;5075501;28;20027;-88
2023/05/25 09:32:38;;;;;;;0.00;0.00;;;;;;;;;;5076176;28;20071;-85
2023/05/25 09:35:13;;;;;;;0.00;0.00;;;;;;;;;;5075557;28;20177;-85
2023/05/25 09:37:40;;;;;;;0.00;0.00;;;;;;;;;;5097767;28;20028;-86
2023/05/25 09:40:07;;;;;;;1.00;0.20;;;;;;;;;;5101157;28;20020;-86
2023/05/25 09:42:33;;;;;;;0.00;0.00;;;;;;;;;;5063536;28;20028;-86
2023/05/25 09:44:59;;;;;;;0.00;0.00;;;;;;;;;;5072821;28;20215;-89
2023/05/25 09:47:28;;;;;;;0.00;0.00;;;;;;;;;;5075939;28;20020;-86
2023/05/25 09:49:55;;;;;;;0.10;0.10;;;;;;;;;;5074973;28;20119;-84
2023/05/25 09:52:20;;;;;;;0.00;0.00;;;;;;;;;;5074571;28;20127;-85
2023/05/25 09:54:50;;;;;;;0.05;0.05;;;;;;;;;;5074739;28;20152;-83
2023/05/25 09:57:19;;;;;;;0.00;0.00;;;;;;;;;;5074950;28;20128;-86
2023/05/25 09:59:45;;;;;;;0.00;0.00;;;;;;;;;;5073679;28;20032;-84
2023/05/25 10:02:11;;;;;;;0.13;0.13;;;;;;;;;;5074693;28;20037;-84
2023/05/25 10:04:38;;;;;;;0.57;0.57;;;;;;;;;;5075127;28;20017;-87
2023/05/25 10:07:05;;;;;;;0.70;0.70;;;;;;;;;;5073310;28;20029;-83
2023/05/25 10:09:30;;;;;;;0.50;0.50;;;;;;;;;;5074241;28;20107;-83
2023/05/25 10:11:58;;;;;;;1.38;0.47;;;;;;;;;;5094265;28;20131;-83
2023/05/25 10:14:27;;;;;;;0.80;0.75;;;;;;;;;;5108423;28;20036;-82
2023/05/25 10:16:54;;;;;;;1.52;1.30;;;;;;;;;;5094024;28;20059;-83
2023/05/25 10:19:45;;;;;;;5.45;2.10;;;;;;;;;;5111305;28;20454;-82
2023/05/25 10:22:25;;;;;;;1.92;1.27;;;;;;;;;;5107162;28;20016;-85
2023/05/25 10:24:55;;;;;;;;;;;;;;;;;;5112077;28;20047;-84
2023/05/25 10:27:30;;;;;;;0.63;0.63;;;;;;;;;;5111427;28;20328;-83
2023/05/25 10:29:58;;;;;;;0.52;0.52;;;;;;;;;;5113227;28;20106;-84
2023/05/25 10:32:25;;;;;;;1.58;0.82;;;;;;;;;;5115238;27;20114;-83
2023/05/25 10:34:52;;;;;;;1.23;0.65;;;;;;;;;;5112137;28;20093;-83
2023/05/25 10:37:17;;;;;;;0.60;0.60;;;;;;;;;;5105834;28;20031;-84
2023/05/25 10:39:44;;;;;;;0.98;0.82;;;;;;;;;;5111525;28;20023;-84
2023/05/25 10:42:11;;;;;;;0.30;0.30;;;;;;;;;;5109318;28;20027;-83
2023/05/25 10:44:38;;;;;;;0.05;0.05;;;;;;;;;;5093200;28;20015;-83
2023/05/25 10:47:04;;;;;;;0.73;0.73;;;;;;;;;;5125733;27;20394;-82
2023/05/25 10:49:32;;;;;;;0.00;0.00;;;;;;;;;;5103409;28;20032;-84
2023/05/25 10:51:58;;;;;;;0.10;0.10;;;;;;;;;;5115988;27;20056;-86
2023/05/25 10:54:28;;;;;;;0.10;0.10;;;;;;;;;;5106549;28;20114;-81
2023/05/25 10:57:07;;;;;;;0.00;0.00;;;;;;;;;;5110516;28;20027;-84
2023/05/25 10:59:33;;;;;;;0.20;0.20;;;;;;;;;;5109659;28;20024;-86
2023/05/25 11:02:05;;;;;;;0.30;0.28;;;;;;;;;;5110269;28;20115;-82
2023/05/25 11:04:35;;;;;;;0.20;0.17;;;;;;;;;;5086660;28;20020;-83
2023/05/25 11:07:01;;;;;;;0.30;0.30;;;;;;;;;;5104766;28;20055;-83
2023/05/25 11:09:29;;;;;;;0.25;0.20;;;;;;;;;;5102880;28;20082;-84
2023/05/25 11:11:55;;;;;;;0.35;0.13;;;;;;;;;;5091725;28;20116;-84
2023/05/25 11:14:30;;;;;;;0.17;0.17;;;;;;;;;;5072784;28;20472;-83
2023/05/25 11:17:10;;;;;;;0.00;0.00;;;;;;;;;;5067295;28;20491;-85
2023/05/25 11:19:53;;;;;;;0.20;0.10;;;;;;;;;;5068454;28;20024;-84
2023/05/25 11:22:22;;;;;;;0.32;0.32;;;;;;;;;;5069781;28;20040;-84
2023/05/25 11:24:49;;;;;;;0.22;0.20;;;;;;;;;;5089818;28;20024;-84
2023/05/25 11:27:15;;;;;;;0.05;0.05;;;;;;;;;;5070411;28;20510;-85
2023/05/25 11:29:40;;;;;;;0.20;0.20;;;;;;;;;;5068027;28;20107;-85
2023/05/25 11:32:13;;;;;;;0.55;0.50;;;;;;;;;;5072206;28;20103;-84
2023/05/25 11:34:45;;;;;;;1.00;0.75;;;;;;;;;;5067026;28;20094;-84
2023/05/25 11:37:12;;;;;;;0.10;0.10;;;;;;;;;;5071048;28;20032;-85
2023/05/25 11:39:38;;;;;;;0.85;0.20;;;;;;;;;;5069363;28;20035;-86
2023/05/25 11:42:06;;;;;;;0.30;0.30;;;;;;;;;;5069423;28;20063;-87
2023/05/25 11:44:32;;;;;;;0.22;0.20;;;;;;;;;;5071121;28;20036;-86
2023/05/25 11:47:07;;;;;;;0.00;0.00;;;;;;;;;;5071508;28;20028;-84
2023/05/25 11:49:32;;;;;;;0.20;0.20;;;;;;;;;;5072605;28;20524;-83
2023/05/25 11:51:58;;;;;;;0.20;0.20;;;;;;;;;;5069482;28;20167;-84
2023/05/25 11:54:27;;;;;;;0.38;0.32;;;;;;;;;;5068068;28;20024;-85
2023/05/25 11:56:57;;;;;;;0.08;0.08;;;;;;;;;;5071994;28;20053;-85
2023/05/25 11:59:28;;;;;;;0.50;0.40;;;;;;;;;;5072751;28;20028;-86
2023/05/25 12:02:01;;;;;;;0.20;0.20;;;;;;;;;;5055067;28;20488;-84
2023/05/25 12:04:28;;;;;;;0.20;0.20;;;;;;;;;;5071610;28;20028;-82
2023/05/25 12:07:04;;;;;;;0.20;0.20;;;;;;;;;;5070783;28;20055;-83
2023/05/25 12:09:30;;;;;;;1.02;0.43;;;;;;;;;;5069100;28;20424;-84
2023/05/25 12:11:55;;;;;;;0.47;0.28;;;;;;;;;;5084039;28;20126;-85
2023/05/25 12:14:22;;;;;;;0.08;0.08;;;;;;;;;;5101680;28;20376;-87
2023/05/25 12:16:48;;;;;;;0.30;0.30;;;;;;;;;;5097991;28;20447;-84
2023/05/25 12:19:14;;;;;;;0.08;0.08;;;;;;;;;;5097645;28;20038;-83
2023/05/25 12:21:40;;;;;;;0.10;0.10;;;;;;;;;;5101770;28;20026;-82
2023/05/25 12:24:07;;;;;;;0.20;0.20;;;;;;;;;;5097574;28;20032;-84
2023/05/25 12:26:33;;;;;;;0.38;0.38;;;;;;;;;;5106717;28;20074;-85
2023/05/25 12:29:07;;;;;;;0.10;0.10;;;;;;;;;;5089732;28;20463;-84
2023/05/25 12:31:39;;;;;;;0.10;0.10;;;;;;;;;;5104165;28;20612;-83
2023/05/25 12:34:15;;;;;;;0.32;0.30;;;;;;;;;;5086120;28;20036;-84
2023/05/25 12:36:47;;;;;;;0.25;0.25;;;;;;;;;;5081540;28;20089;-85
2023/05/25 12:39:15;;;;;;;0.10;0.10;;;;;;;;;;5098437;28;20055;-84
2023/05/25 12:41:47;;;;;;;0.03;0.03;;;;;;;;;;5097130;28;20392;-85
2023/05/25 12:44:26;;;;;;;0.70;0.65;;;;;;;;;;5096998;28;20017;-86
2023/05/25 12:46:53;;;;;;;0.20;0.20;;;;;;;;;;5078216;28;20085;-85
2023/05/25 12:49:29;;;;;;;0.22;0.22;;;;;;;;;;5095944;28;20434;-84
2023/05/25 12:51:55;;;;;;;0.10;0.10;;;;;;;;;;5099784;28;20459;-86
2023/05/25 12:54:32;;;;;;;0.20;0.20;;;;;;;;;;5094871;28;20035;-86
2023/05/25 12:56:57;;;;;;;0.08;0.08;;;;;;;;;;5114739;27;20102;-86
2023/05/25 12:59:23;;;;;;;0.10;0.10;;;;;;;;;;5084651;28;20106;-87
2023/05/25 13:01:48;;;;;;;0.30;0.30;;;;;;;;;;5095813;28;20034;-87
2023/05/25 13:04:14;;;;;;;0.10;0.10;;;;;;;;;;5102781;28;20016;-87
2023/05/25 13:06:39;;;;;;;0.25;0.20;;;;;;;;;;5100139;28;20023;-86
2023/05/25 13:09:04;;;;;;;0.13;0.13;;;;;;;;;;5096755;28;20023;-89
2023/05/25 13:11:30;;;;;;;0.10;0.10;;;;;;;;;;5088077;28;20127;-88
2023/05/25 13:13:55;;;;;;;0.10;0.10;;;;;;;;;;5061269;28;20036;-87
2023/05/25 13:16:21;;;;;;;0.15;0.15;;;;;;;;;;5069950;28;20028;-89
2023/05/25 13:18:47;;;;;;;0.35;0.22;;;;;;;;;;5072173;28;20035;-89
2023/05/25 13:21:12;;;;;;;0.20;0.20;;;;;;;;;;5071259;28;20024;-89
2023/05/25 13:23:37;;;;;;;0.00;0.00;;;;;;;;;;5071274;28;20033;-90
2023/05/25 13:26:03;;;;;;;0.30;0.30;;;;;;;;;;5069904;28;20029;-89
2023/05/25 13:28:28;;;;;;;0.40;0.38;;;;;;;;;;5095495;28;20043;-88
2023/05/25 13:30:54;;;;;;;0.10;0.10;;;;;;;;;;5070887;28;20032;-86
2023/05/25 13:33:19;;;;;;;0.30;0.30;;;;;;;;;;5070448;28;20016;-87
2023/05/25 13:35:56;;;;;;;0.30;0.30;;;;;;;;;;5067445;28;20074;-85
2023/05/25 13:38:25;;;;;;;0.10;0.10;;;;;;;;;;5057986;28;20043;-88
2023/05/25 13:40:51;;;;;;;;;;;;;;;;;;5071856;28;20020;-87
2023/05/25 13:43:35;;;;;;;0.10;0.10;;;;;;;;;;5094323;28;20273;-87
2023/05/25 13:46:03;;;;;;;0.25;0.17;;;;;;;;;;5050517;28;20166;-87
2023/05/25 13:48:32;;;;;;;0.40;0.25;;;;;;;;;;5058558;28;20123;-90
2023/05/25 13:51:30;;;;;;;0.25;0.25;;;;;;;;;;5056431;28;20051;-89
2023/05/25 13:54:01;;;;;;;0.22;0.20;;;;;;;;;;5066953;28;20115;-86
2023/05/25 13:56:27;;;;;;;1.15;0.45;;;;;;;;;;5070742;28;20021;-86
2023/05/25 13:58:55;;;;;;;0.10;0.10;;;;;;;;;;5070172;28;20150;-88
2023/05/25 14:01:38;;;;;;;;;;;;;;;;;;;;;
2023/05/25 14:04:04;;;;;;;0.10;0.10;;;;;;;;;;5070782;28;20035;-84
2023/05/25 14:06:47;;;;;;;0.20;0.20;;;;;;;;;;5063752;28;20103;-88
2023/05/25 14:09:41;;;;;;;0.00;0.00;;;;;;;;;;5064373;28;20029;-86
2023/05/25 14:12:22;;;;;;;0.80;0.38;;;;;;;;;;5069665;28;20072;-91
2023/05/25 14:15:00;;;;;;;0.30;0.30;;;;;;;;;;5083386;28;20024;-89
2023/05/25 14:17:25;;;;;;;0.30;0.22;;;;;;;;;;5086729;28;20081;-89
2023/05/25 14:19:51;;;;;;;0.20;0.20;;;;;;;;;;5100825;28;20024;-85
2023/05/25 14:22:16;;;;;;;0.10;0.10;;;;;;;;;;5098477;28;20024;-89
2023/05/25 14:24:42;;;;;;;0.43;0.20;;;;;;;;;;5100426;28;20028;-88
2023/05/25 14:27:07;;;;;;;0.30;0.30;;;;;;;;;;5106070;28;20103;-89
2023/05/25 14:29:33;;;;;;;0.15;0.15;;;;;;;;;;5102168;28;20032;-88
2023/05/25 14:31:58;;;;;;;0.20;0.20;;;;;;;;;;5095602;28;20050;-91
2023/05/25 14:34:23;;;;;;;0.55;0.30;;;;;;;;;;5092143;28;20077;-86
2023/05/25 14:36:49;;;;;;;0.20;0.20;;;;;;;;;;5106970;28;20471;-91
2023/05/25 14:39:14;;;;;;;0.40;0.32;;;;;;;;;;5092998;28;20028;-89
2023/05/25 14:41:39;;;;;;;0.20;0.20;;;;;;;;;;5102306;28;20052;-88
2023/05/25 14:44:05;;;;;;;0.05;0.05;;;;;;;;;;5099488;28;20022;-88
2023/05/25 14:46:32;;;;;;;0.43;0.13;;;;;;;;;;5104799;28;20028;-86
2023/05/25 14:48:57;;;;;;;0.10;0.10;;;;;;;;;;5103715;28;20028;-92
2023/05/25 14:51:24;;;;;;;0.35;0.20;;;;;;;;;;5094529;28;20043;-90
2023/05/25 14:53:50;;;;;;;0.00;0.00;;;;;;;;;;5103739;28;20027;-88